Time;durP1;ratioP1;P1;durP2;ratioP2;P2;SDS_P1;SDS_P2;PMS_P1;PMS_P2;Temp;Humidity;BMP_temperature;BMP_pressure;BME280_temperature;BME280_humidity;BME280_pressure;Samples;Min_cycle;Max_cycle;Signal;HPM_P1;HPM_P2
2021/05/28 00:00:17;;;;;;;14.77;7.93;;;10.60;99.90;;;;;;5114666;28;20483;-68
2021/05/28 00:03:02;;;;;;;12.10;9.20;;;10.70;99.90;;;;;;5117389;28;20507;-70
2021/05/28 00:05:47;;;;;;;21.63;6.90;;;10.70;99.90;;;;;;5122281;28;20423;-70
2021/05/28 00:08:33;;;;;;;22.03;8.00;;;10.70;99.90;;;;;;5118835;28;20426;-70
2021/05/28 00:11:19;;;;;;;11.10;8.70;;;10.50;99.90;;;;;;5121308;28;20548;-70
2021/05/28 00:14:04;;;;;;;21.73;8.53;;;10.50;99.90;;;;;;5122418;28;20550;-70
2021/05/28 00:16:49;;;;;;;9.17;7.67;;;10.40;99.90;;;;;;5119273;28;21009;-69
2021/05/28 00:19:35;;;;;;;17.33;8.67;;;10.40;99.90;;;;;;5119379;28;20442;-69
2021/05/28 00:22:21;;;;;;;19.80;7.67;;;10.40;99.90;;;;;;5120274;28;20520;-70
2021/05/28 00:25:07;;;;;;;15.40;9.90;;;10.30;99.90;;;;;;5114199;28;20457;-70
2021/05/28 00:27:53;;;;;;;14.20;7.73;;;10.00;99.90;;;;;;5103896;28;20427;-70
2021/05/28 00:30:39;;;;;;;13.47;8.37;;;10.00;99.90;;;;;;5102066;28;20814;-71
2021/05/28 00:33:24;;;;;;;10.17;8.00;;;9.90;99.90;;;;;;5106681;28;20448;-70
2021/05/28 00:36:09;;;;;;;13.73;8.20;;;9.90;99.90;;;;;;5107698;28;20414;-70
2021/05/28 00:38:54;;;;;;;10.87;8.00;;;9.90;99.90;;;;;;5102103;28;20432;-70
2021/05/28 00:41:39;;;;;;;10.47;8.50;;;10.00;99.90;;;;;;5108684;28;20440;-70
2021/05/28 00:44:27;;;;;;;9.60;8.60;;;10.10;99.90;;;;;;5105616;28;20453;-69
2021/05/28 00:47:13;;;;;;;9.80;7.97;;;10.10;99.90;;;;;;5109146;28;20514;-70
2021/05/28 00:49:58;;;;;;;9.23;8.30;;;10.20;99.90;;;;;;5108250;28;20579;-70
2021/05/28 00:52:44;;;;;;;12.83;8.80;;;10.30;99.90;;;;;;5106215;28;20448;-71
2021/05/28 00:55:29;;;;;;;11.07;7.73;;;10.40;99.90;;;;;;5108280;28;20498;-70
2021/05/28 00:58:14;;;;;;;14.63;8.37;;;10.50;99.90;;;;;;5107695;28;20460;-69
2021/05/28 01:01:01;;;;;;;9.47;7.67;;;10.40;99.90;;;;;;5101843;28;21202;-70
2021/05/28 01:03:45;;;;;;;12.63;8.23;;;10.40;99.90;;;;;;5110283;28;20411;-70
2021/05/28 01:06:31;;;;;;;13.23;9.20;;;10.40;99.90;;;;;;5108950;28;20420;-71
2021/05/28 01:09:16;;;;;;;10.50;8.40;;;10.50;99.90;;;;;;5092410;28;20421;-70
2021/05/28 01:12:01;;;;;;;18.10;8.93;;;10.40;99.90;;;;;;5108534;28;20461;-70
2021/05/28 01:14:49;;;;;;;20.77;10.10;;;10.40;99.90;;;;;;5106663;28;20484;-71
2021/05/28 01:17:35;;;;;;;13.27;10.33;;;10.30;99.90;;;;;;5104861;28;20595;-69
2021/05/28 01:20:20;;;;;;;14.60;11.50;;;10.20;99.90;;;;;;5108441;28;20571;-69
2021/05/28 01:23:06;;;;;;;24.97;10.77;;;10.20;99.90;;;;;;5104909;28;20546;-70
2021/05/28 01:25:51;;;;;;;13.50;10.20;;;10.40;99.90;;;;;;5101372;28;20413;-68
2021/05/28 01:28:36;;;;;;;11.43;9.60;;;10.60;99.90;;;;;;5105779;28;20522;-70
2021/05/28 01:31:21;;;;;;;17.83;9.00;;;10.60;99.90;;;;;;5109877;28;20563;-69
2021/05/28 01:34:07;;;;;;;17.33;10.27;;;10.40;99.90;;;;;;5103126;28;20977;-71
2021/05/28 01:36:52;;;;;;;11.97;9.67;;;10.40;99.90;;;;;;5101206;28;20458;-70
2021/05/28 01:39:44;;;;;;;12.20;9.60;;;10.50;99.90;;;;;;5100453;28;20546;-68
2021/05/28 01:42:29;;;;;;;16.23;10.50;;;10.60;99.90;;;;;;5104227;28;20526;-70
2021/05/28 01:45:15;;;;;;;13.90;10.17;;;10.70;99.90;;;;;;5104967;28;20433;-70
2021/05/28 01:48:02;;;;;;;14.80;10.60;;;10.60;99.90;;;;;;5101070;28;20411;-70
2021/05/28 01:50:47;;;;;;;12.80;11.30;;;10.70;99.90;;;;;;5099557;28;20461;-71
2021/05/28 01:53:32;;;;;;;13.23;10.90;;;10.70;99.90;;;;;;5104053;28;20611;-69
2021/05/28 01:56:18;;;;;;;12.30;11.00;;;10.70;99.90;;;;;;5103539;28;20423;-70
2021/05/28 01:59:07;;;;;;;11.87;10.43;;;10.80;99.90;;;;;;5106135;28;20424;-71
2021/05/28 02:01:52;;;;;;;12.27;10.30;;;10.80;99.90;;;;;;5107027;28;20818;-70
2021/05/28 02:04:38;;;;;;;11.67;9.87;;;10.80;99.90;;;;;;5100655;28;20420;-70
2021/05/28 02:07:22;;;;;;;11.00;9.80;;;10.90;99.90;;;;;;5103305;28;20480;-69
2021/05/28 02:10:08;;;;;;;14.23;10.30;;;10.90;99.90;;;;;;5104218;28;20471;-70
2021/05/28 02:12:54;;;;;;;13.40;9.60;;;10.90;99.90;;;;;;5103442;28;20503;-70
2021/05/28 02:15:40;;;;;;;12.10;10.07;;;10.90;99.90;;;;;;5105965;28;20433;-70
2021/05/28 02:18:25;;;;;;;13.87;10.50;;;11.00;99.90;;;;;;5105374;28;20427;-70
2021/05/28 02:21:10;;;;;;;10.50;9.40;;;10.90;99.90;;;;;;5104144;28;21034;-69
2021/05/28 02:23:55;;;;;;;11.33;9.93;;;10.70;99.90;;;;;;5101258;28;20471;-71
2021/05/28 02:26:40;;;;;;;11.07;9.97;;;10.60;99.90;;;;;;5102273;28;20483;-70
2021/05/28 02:29:26;;;;;;;10.93;9.77;;;10.60;99.90;;;;;;5103549;28;20501;-69
2021/05/28 02:32:11;;;;;;;12.63;9.70;;;10.60;99.90;;;;;;5104651;28;20467;-70
2021/05/28 02:34:57;;;;;;;11.63;9.90;;;10.70;99.90;;;;;;5098370;28;20408;-71
2021/05/28 02:37:42;;;;;;;12.47;10.50;;;10.80;99.90;;;;;;5106734;28;20424;-70
2021/05/28 02:40:27;;;;;;;9.63;8.67;;;10.90;99.90;;;;;;5107284;28;20468;-70
2021/05/28 02:43:12;;;;;;;11.77;8.73;;;10.80;99.90;;;;;;5102963;28;20944;-69
2021/05/28 02:45:58;;;;;;;17.60;8.60;;;10.80;99.90;;;;;;5107682;28;20521;-70
2021/05/28 02:48:43;;;;;;;11.47;10.27;;;10.80;99.90;;;;;;5103170;28;20427;-69
2021/05/28 02:51:28;;;;;;;10.90;8.90;;;10.70;99.90;;;;;;5107692;28;20461;-69
2021/05/28 02:54:13;;;;;;;14.80;9.77;;;10.70;99.90;;;;;;5102227;28;20478;-70
2021/05/28 02:56:59;;;;;;;11.20;9.80;;;10.80;99.90;;;;;;5108967;28;20512;-70
2021/05/28 02:59:44;;;;;;;10.37;9.27;;;10.90;99.90;;;;;;5106173;28;20554;-70
2021/05/28 03:02:30;;;;;;;10.13;9.13;;;10.90;99.90;;;;;;5106972;28;20957;-70
2021/05/28 03:05:15;;;;;;;10.33;7.70;;;10.90;99.90;;;;;;5099737;28;20453;-70
2021/05/28 03:08:00;;;;;;;9.00;7.90;;;10.90;99.90;;;;;;5105609;28;20452;-68
2021/05/28 03:10:46;;;;;;;9.53;7.83;;;10.90;99.90;;;;;;5102923;28;20462;-70
2021/05/28 03:13:31;;;;;;;13.33;9.10;;;10.90;99.90;;;;;;5106033;28;20531;-70
2021/05/28 03:16:16;;;;;;;12.20;8.93;;;10.90;99.90;;;;;;5100559;28;20494;-70
2021/05/28 03:19:05;;;;;;;13.40;9.70;;;10.90;99.90;;;;;;5096352;28;20591;-70
2021/05/28 03:24:53;;;;;;;12.17;9.27;;;10.80;99.90;;;;;;5098226;28;20872;-70
2021/05/28 03:27:39;;;;;;;11.90;8.70;;;10.80;99.90;;;;;;5102383;28;20530;-70
2021/05/28 03:30:25;;;;;;;12.30;9.60;;;10.90;99.90;;;;;;5100860;28;20557;-70
2021/05/28 03:33:10;;;;;;;15.03;9.83;;;10.90;99.90;;;;;;5099716;28;20892;-70
2021/05/28 03:35:57;;;;;;;13.10;10.77;;;10.90;99.90;;;;;;5102764;28;21002;-70
2021/05/28 03:38:42;;;;;;;14.93;10.40;;;10.90;99.90;;;;;;5106234;28;20423;-70
2021/05/28 03:41:27;;;;;;;14.57;9.63;;;10.90;99.90;;;;;;5104486;28;20456;-68
2021/05/28 03:44:12;;;;;;;12.20;10.90;;;10.90;99.90;;;;;;5110817;28;20802;-70
2021/05/28 03:46:58;;;;;;;12.57;9.77;;;10.80;99.90;;;;;;5108532;28;20434;-67
2021/05/28 03:49:43;;;;;;;12.83;9.80;;;10.90;99.90;;;;;;5110775;28;20452;-70
2021/05/28 03:52:29;;;;;;;15.40;9.77;;;11.00;99.90;;;;;;5112802;28;20537;-70
2021/05/28 03:55:14;;;;;;;13.67;10.90;;;10.70;99.90;;;;;;5114657;28;20417;-69
2021/05/28 03:57:59;;;;;;;11.70;10.17;;;10.60;99.90;;;;;;5111558;28;20995;-70
2021/05/28 04:00:44;;;;;;;14.03;11.20;;;10.70;99.90;;;;;;5110291;28;20526;-70
2021/05/28 04:03:30;;;;;;;18.07;11.40;;;10.70;99.90;;;;;;5110874;28;20579;-70
2021/05/28 04:06:14;;;;;;;14.67;11.00;;;10.70;99.90;;;;;;5109590;28;20450;-69
2021/05/28 04:09:01;;;;;;;15.30;10.87;;;10.80;99.90;;;;;;5108693;28;20955;-68
2021/05/28 04:11:46;;;;;;;18.07;10.43;;;10.90;99.90;;;;;;5131586;22;20526;-74
2021/05/28 04:14:31;;;;;;;14.57;10.60;;;10.90;99.90;;;;;;5114529;28;20528;-74
2021/05/28 04:17:16;;;;;;;11.13;9.93;;;10.90;99.90;;;;;;5110991;28;20513;-74
2021/05/28 04:20:01;;;;;;;13.10;11.70;;;11.00;99.90;;;;;;5110672;28;20420;-74
2021/05/28 04:22:46;;;;;;;17.10;12.70;;;11.00;99.90;;;;;;5086232;28;20577;-74
2021/05/28 04:25:32;;;;;;;13.83;11.60;;;10.90;99.90;;;;;;5094168;28;20534;-74
2021/05/28 04:28:17;;;;;;;17.13;13.60;;;10.80;99.90;;;;;;5089054;28;20493;-74
2021/05/28 04:31:03;;;;;;;14.90;11.73;;;10.80;99.90;;;;;;5087039;28;20500;-74
2021/05/28 04:33:48;;;;;;;19.00;13.07;;;10.80;99.90;;;;;;5090015;28;20477;-74
2021/05/28 04:36:33;;;;;;;14.57;11.70;;;10.80;99.90;;;;;;5077034;28;20425;-74
2021/05/28 04:39:18;;;;;;;14.20;11.80;;;10.80;99.90;;;;;;5086251;28;20431;-74
2021/05/28 04:42:05;;;;;;;24.37;12.67;;;10.90;99.90;;;;;;5093519;28;20446;-74
2021/05/28 04:44:50;;;;;;;15.00;12.10;;;10.80;99.90;;;;;;5091094;28;20465;-74
2021/05/28 04:47:35;;;;;;;14.70;11.87;;;11.00;99.90;;;;;;5093016;28;20396;-74
2021/05/28 04:50:20;;;;;;;13.50;9.83;;;11.00;99.90;;;;;;5091607;28;20446;-74
2021/05/28 04:53:06;;;;;;;12.67;10.70;;;11.20;99.90;;;;;;5093490;28;20523;-74
2021/05/28 04:55:51;;;;;;;12.77;10.50;;;11.20;99.90;;;;;;5090333;28;20487;-75
2021/05/28 04:58:37;;;;;;;12.77;10.27;;;11.20;99.90;;;;;;5089291;28;20432;-74
2021/05/28 05:01:23;;;;;;;18.90;11.70;;;11.20;99.90;;;;;;5093492;28;20471;-74
2021/05/28 05:04:08;;;;;;;14.10;11.17;;;11.30;99.90;;;;;;5091735;28;20941;-74
2021/05/28 05:06:53;;;;;;;14.43;10.20;;;11.40;99.90;;;;;;5086095;28;20770;-74
2021/05/28 05:09:38;;;;;;;14.23;10.03;;;11.30;99.90;;;;;;5086924;28;20441;-74
2021/05/28 05:12:23;;;;;;;15.77;11.03;;;11.30;99.90;;;;;;5090943;28;20467;-74
2021/05/28 05:15:11;;;;;;;12.60;10.37;;;11.30;99.90;;;;;;5087194;28;20433;-74
2021/05/28 05:17:56;;;;;;;12.77;10.07;;;11.30;99.90;;;;;;5071289;28;20393;-74
2021/05/28 05:20:41;;;;;;;17.83;11.33;;;11.30;99.90;;;;;;5076138;28;20515;-74
2021/05/28 05:23:26;;;;;;;12.20;10.90;;;11.30;99.90;;;;;;5086799;28;20411;-74
2021/05/28 05:26:11;;;;;;;18.00;12.00;;;11.40;99.90;;;;;;5088109;28;20457;-74
2021/05/28 05:28:56;;;;;;;13.43;11.53;;;11.50;99.90;;;;;;5092273;28;20925;-74
2021/05/28 05:31:42;;;;;;;14.17;9.97;;;11.50;99.90;;;;;;5089569;28;20466;-74
2021/05/28 05:34:28;;;;;;;14.40;10.37;;;11.50;99.90;;;;;;5090007;28;20400;-74
2021/05/28 05:37:13;;;;;;;15.87;10.50;;;11.60;99.90;;;;;;5078284;28;20874;-74
2021/05/28 05:39:58;;;;;;;13.90;11.23;;;11.70;99.90;;;;;;5081157;28;20520;-75
2021/05/28 05:42:43;;;;;;;14.40;10.67;;;11.70;99.90;;;;;;5091201;28;20493;-74
2021/05/28 05:45:28;;;;;;;12.40;10.33;;;11.70;99.90;;;;;;5086437;28;20522;-75
2021/05/28 05:48:15;;;;;;;14.77;12.00;;;11.80;99.90;;;;;;5084856;28;20452;-73
2021/05/28 05:51:00;;;;;;;18.93;12.40;;;11.80;99.90;;;;;;5086732;28;20802;-75
2021/05/28 05:53:46;;;;;;;13.67;10.03;;;11.80;99.90;;;;;;5082560;28;21101;-75
2021/05/28 05:56:31;;;;;;;15.00;11.20;;;11.80;99.90;;;;;;5088448;28;20462;-76
2021/05/28 05:59:16;;;;;;;17.63;11.80;;;11.80;99.90;;;;;;5089078;28;20395;-74
2021/05/28 06:02:02;;;;;;;14.30;12.03;;;11.90;99.90;;;;;;5089745;28;20451;-75
2021/05/28 06:04:48;;;;;;;14.57;11.90;;;12.00;99.90;;;;;;5080131;28;20988;-74
2021/05/28 06:07:33;;;;;;;14.90;11.50;;;12.00;99.90;;;;;;5090733;28;20555;-73
2021/05/28 06:10:18;;;;;;;17.13;12.40;;;12.10;99.90;;;;;;5090776;28;20515;-75
2021/05/28 06:13:04;;;;;;;15.80;12.47;;;12.10;99.90;;;;;;5086341;28;20504;-75
2021/05/28 06:15:50;;;;;;;15.60;12.37;;;12.20;99.90;;;;;;5086877;28;20537;-74
2021/05/28 06:18:35;;;;;;;13.07;10.93;;;12.30;99.90;;;;;;5085412;28;20434;-74
2021/05/28 06:21:21;;;;;;;16.10;11.20;;;12.30;99.90;;;;;;5085667;28;20432;-73
2021/05/28 06:24:08;;;;;;;17.50;11.23;;;12.50;99.90;;;;;;5091629;28;20414;-75
2021/05/28 06:26:53;;;;;;;13.80;10.20;;;12.50;99.90;;;;;;5092018;28;20396;-74
2021/05/28 06:29:37;;;;;;;24.63;11.50;;;12.60;99.90;;;;;;5086808;28;20567;-75
2021/05/28 06:32:23;;;;;;;17.73;11.30;;;12.60;99.90;;;;;;5083866;28;20557;-75
2021/05/28 06:35:08;;;;;;;13.07;11.23;;;12.70;99.90;;;;;;5082879;28;20491;-74
2021/05/28 06:37:54;;;;;;;15.13;10.40;;;12.70;99.90;;;;;;5075626;28;20487;-74
2021/05/28 06:40:40;;;;;;;12.33;10.53;;;12.80;99.90;;;;;;5081197;28;20558;-74
2021/05/28 06:43:25;;;;;;;16.90;11.30;;;12.90;99.90;;;;;;5088577;28;20559;-75
2021/05/28 06:46:10;;;;;;;14.00;11.50;;;12.90;99.90;;;;;;5077063;28;20518;-76
2021/05/28 06:48:56;;;;;;;16.47;11.73;;;12.80;99.90;;;;;;5079824;28;20465;-76
2021/05/28 06:51:41;;;;;;;13.87;11.93;;;12.80;99.90;;;;;;5083237;28;20469;-76
2021/05/28 06:54:29;;;;;;;16.70;11.87;;;13.00;99.90;;;;;;5080886;28;20945;-76
2021/05/28 06:57:14;;;;;;;15.83;11.50;;;12.90;99.90;;;;;;5078541;28;20961;-75
2021/05/28 06:59:59;;;;;;;13.30;11.57;;;12.80;99.90;;;;;;5083419;28;21038;-76
2021/05/28 07:02:44;;;;;;;20.17;12.33;;;12.90;99.90;;;;;;5082584;28;20534;-75
2021/05/28 07:05:29;;;;;;;21.57;12.30;;;13.00;99.90;;;;;;5084051;28;20515;-76
2021/05/28 07:08:14;;;;;;;16.40;12.63;;;13.00;99.90;;;;;;5077446;28;20449;-76
2021/05/28 07:11:00;;;;;;;17.30;11.50;;;13.20;99.90;;;;;;5086660;28;20486;-76
2021/05/28 07:13:46;;;;;;;18.93;11.30;;;13.10;99.90;;;;;;5090296;28;20486;-76
2021/05/28 07:16:32;;;;;;;15.03;10.43;;;13.20;99.90;;;;;;5082279;28;20525;-75
2021/05/28 07:19:17;;;;;;;13.10;10.03;;;13.30;99.90;;;;;;5081928;28;20446;-75
2021/05/28 07:22:02;;;;;;;18.13;11.03;;;13.30;99.90;;;;;;5089135;28;20420;-75
2021/05/28 07:24:47;;;;;;;14.93;10.03;;;13.40;99.90;;;;;;5090944;28;20502;-76
2021/05/28 07:27:33;;;;;;;14.07;11.50;;;13.50;99.90;;;;;;5094934;28;20463;-75
2021/05/28 07:30:19;;;;;;;13.73;10.20;;;13.60;99.90;;;;;;5094954;28;20417;-75
2021/05/28 07:33:05;;;;;;;16.33;11.37;;;13.60;99.90;;;;;;5091129;28;20423;-75
2021/05/28 07:35:51;;;;;;;14.63;10.87;;;13.60;99.90;;;;;;5088024;28;20790;-76
2021/05/28 07:38:36;;;;;;;13.20;9.93;;;13.70;99.90;;;;;;5090414;28;21933;-76
2021/05/28 07:41:22;;;;;;;12.43;9.90;;;13.70;99.90;;;;;;5082492;28;20432;-76
2021/05/28 07:44:08;;;;;;;14.33;9.73;;;13.80;99.90;;;;;;5092348;28;20457;-76
2021/05/28 07:46:53;;;;;;;13.87;9.37;;;13.90;99.90;;;;;;5089309;28;20449;-76
2021/05/28 07:49:39;;;;;;;12.67;9.90;;;13.90;99.90;;;;;;5092881;28;20979;-76
2021/05/28 07:52:24;;;;;;;13.83;9.10;;;14.00;99.90;;;;;;5091119;28;20485;-75
2021/05/28 07:55:09;;;;;;;15.40;8.80;;;13.90;99.90;;;;;;5092608;28;21016;-76
2021/05/28 07:57:55;;;;;;;11.77;9.17;;;13.90;99.90;;;;;;5088666;28;20484;-76
2021/05/28 08:00:41;;;;;;;17.00;10.67;;;13.90;99.90;;;;;;5085106;28;20436;-76
2021/05/28 08:03:26;;;;;;;12.77;8.17;;;13.70;99.90;;;;;;5083471;28;20424;-76
2021/05/28 08:06:12;;;;;;;13.03;7.23;;;13.90;99.90;;;;;;5089553;28;20470;-76
2021/05/28 08:08:57;;;;;;;11.60;7.67;;;14.00;99.90;;;;;;5087152;28;20458;-76
2021/05/28 08:11:42;;;;;;;16.03;7.70;;;14.10;99.90;;;;;;5083365;28;21028;-76
2021/05/28 08:14:27;;;;;;;13.97;8.47;;;14.10;99.90;;;;;;5087605;28;20446;-76
2021/05/28 08:17:13;;;;;;;12.10;9.10;;;14.10;99.90;;;;;;5087224;28;20958;-76
2021/05/28 08:19:58;;;;;;;11.50;8.23;;;14.30;99.90;;;;;;5090144;28;20515;-76
2021/05/28 08:22:44;;;;;;;10.40;6.80;;;14.40;99.90;;;;;;5090817;28;20520;-75
2021/05/28 08:25:29;;;;;;;23.50;8.17;;;14.60;99.90;;;;;;5091140;28;20404;-75
2021/05/28 08:28:15;;;;;;;12.50;7.30;;;14.70;99.90;;;;;;5088641;28;20536;-74
2021/05/28 08:31:00;;;;;;;10.33;5.50;;;14.90;99.90;;;;;;5085506;28;20462;-75
2021/05/28 08:33:46;;;;;;;10.60;6.20;;;15.00;99.90;;;;;;5083871;28;20792;-74
2021/05/28 08:36:31;;;;;;;8.13;4.80;;;15.00;99.90;;;;;;5076327;28;20392;-74
2021/05/28 08:39:16;;;;;;;5.33;4.57;;;14.80;99.90;;;;;;5090442;28;20454;-76
2021/05/28 08:42:02;;;;;;;6.73;4.70;;;14.80;99.90;;;;;;5092723;28;20489;-73
2021/05/28 08:44:48;;;;;;;9.37;5.43;;;14.80;99.90;;;;;;5090901;28;20882;-75
2021/05/28 08:47:34;;;;;;;5.83;4.00;;;14.70;99.90;;;;;;5083037;28;20814;-74
2021/05/28 08:50:25;;;;;;;6.53;3.67;;;14.80;99.90;;;;;;5086339;28;20900;-74
2021/05/28 08:53:12;;;;;;;8.13;3.57;;;14.90;99.90;;;;;;5090631;28;20812;-75
2021/05/28 08:55:57;;;;;;;7.70;3.73;;;15.10;99.90;;;;;;5085449;28;20423;-75
2021/05/28 08:58:42;;;;;;;6.13;3.03;;;15.20;99.90;;;;;;5089786;28;20475;-74
2021/05/28 09:01:28;;;;;;;9.03;3.07;;;15.30;99.90;;;;;;5080933;28;20439;-75
2021/05/28 09:04:13;;;;;;;5.37;3.30;;;15.40;99.90;;;;;;5082776;28;20428;-75
2021/05/28 09:07:00;;;;;;;4.33;3.40;;;15.30;99.90;;;;;;5077966;28;20421;-75
2021/05/28 09:09:45;;;;;;;4.77;3.23;;;15.40;99.90;;;;;;5091386;28;20426;-76
2021/05/28 09:12:30;;;;;;;4.70;3.30;;;15.40;99.90;;;;;;5092633;28;20443;-74
2021/05/28 09:15:18;;;;;;;5.90;3.50;;;15.50;99.90;;;;;;5087655;28;20469;-76
2021/05/28 09:18:04;;;;;;;7.83;3.77;;;15.30;99.90;;;;;;5085992;28;20420;-76
2021/05/28 09:20:56;;;;;;;4.70;3.00;;;15.20;99.90;;;;;;5072747;28;20446;-76
2021/05/28 09:23:43;;;;;;;4.93;3.07;;;15.20;99.90;;;;;;5082449;28;20400;-76
2021/05/28 09:26:30;;;;;;;5.57;3.93;;;15.40;99.90;;;;;;5084748;28;20540;-75
2021/05/28 09:29:15;;;;;;;12.07;4.20;;;15.50;99.90;;;;;;5082280;28;20508;-75
2021/05/28 09:32:20;;;;;;;6.40;3.90;;;15.70;99.90;;;;;;5084034;28;20516;-75
2021/05/28 09:35:09;;;;;;;4.93;2.77;;;15.70;99.90;;;;;;5072351;28;20444;-75
2021/05/28 09:37:55;;;;;;;6.03;2.70;;;15.70;99.90;;;;;;5087685;28;21012;-75
2021/05/28 09:40:44;;;;;;;4.83;3.00;;;15.70;99.90;;;;;;5083730;28;20479;-75
2021/05/28 09:43:29;;;;;;;5.57;3.00;;;15.70;99.90;;;;;;5089872;28;20487;-75
2021/05/28 09:46:14;;;;;;;5.67;3.50;;;15.60;99.90;;;;;;5089817;28;20453;-75
2021/05/28 09:49:06;;;;;;;4.03;3.13;;;15.60;99.90;;;;;;5084777;28;20436;-75
2021/05/28 09:52:12;;;;;;;5.50;2.03;;;15.50;99.90;;;;;;5089486;28;20484;-75
2021/05/28 09:54:59;;;;;;;3.60;2.73;;;15.70;99.90;;;;;;5085856;28;20416;-75
2021/05/28 09:57:47;;;;;;;4.60;2.60;;;15.70;99.90;;;;;;5086216;28;20470;-75
2021/05/28 10:00:34;;;;;;;3.97;2.53;;;15.80;99.90;;;;;;5086996;28;20469;-75
2021/05/28 10:03:22;;;;;;;7.03;3.13;;;15.90;99.90;;;;;;5088909;28;20696;-76
2021/05/28 10:06:08;;;;;;;4.97;2.20;;;16.10;99.90;;;;;;5089403;28;20500;-75
2021/05/28 10:08:53;;;;;;;3.47;2.17;;;16.00;99.90;;;;;;5089977;28;20445;-74
2021/05/28 10:11:40;;;;;;;5.17;2.60;;;16.10;99.90;;;;;;5080824;28;20454;-74
2021/05/28 10:14:26;;;;;;;8.27;2.80;;;16.00;99.90;;;;;;5130102;22;20885;-69
2021/05/28 10:17:11;;;;;;;4.43;2.83;;;16.00;99.90;;;;;;5099291;28;21057;-70
2021/05/28 10:19:56;;;;;;;4.47;2.93;;;16.30;99.90;;;;;;5102478;28;20939;-69
2021/05/28 10:22:42;;;;;;;9.93;2.60;;;16.40;99.90;;;;;;5098130;28;20461;-69
2021/05/28 10:25:27;;;;;;;7.10;2.47;;;16.70;99.90;;;;;;5111094;28;20399;-70
2021/05/28 10:28:17;;;;;;;6.83;3.40;;;16.90;99.90;;;;;;5110688;28;20457;-69
2021/05/28 10:31:04;;;;;;;4.73;3.07;;;16.90;99.90;;;;;;5110961;28;20391;-70
2021/05/28 10:33:53;;;;;;;5.03;2.10;;;16.90;99.90;;;;;;5105545;28;21249;-69
2021/05/28 10:36:43;;;;;;;4.63;2.23;;;17.00;99.90;;;;;;5103187;28;20524;-70
2021/05/28 10:39:29;;;;;;;5.30;2.40;;;17.00;99.90;;;;;;5101123;28;20460;-69
2021/05/28 10:42:14;;;;;;;2.73;1.67;;;17.20;99.90;;;;;;5111990;28;21208;-69
2021/05/28 10:45:00;;;;;;;3.70;1.33;;;17.30;99.90;;;;;;5110017;28;20464;-69
2021/05/28 10:47:46;;;;;;;3.10;1.40;;;17.40;93.20;;;;;;5104444;28;20430;-69
2021/05/28 10:50:46;;;;;;;3.80;1.67;;;17.50;90.30;;;;;;5108658;28;20427;-69
2021/05/28 10:53:31;;;;;;;4.73;1.90;;;17.40;90.30;;;;;;5106576;28;20468;-69
2021/05/28 10:56:17;;;;;;;12.20;2.63;;;17.20;93.60;;;;;;5107191;28;20579;-70
2021/05/28 10:59:10;;;;;;;5.53;3.00;;;17.00;93.10;;;;;;5105916;28;20933;-70
2021/05/28 11:01:56;;;;;;;5.27;1.90;;;17.00;95.40;;;;;;5103195;28;20535;-69
2021/05/28 11:04:59;;;;;;;9.70;2.57;;;17.00;95.40;;;;;;5111325;28;20812;-69
2021/05/28 11:07:47;;;;;;;4.20;2.33;;;16.90;98.80;;;;;;5102946;28;20506;-69
2021/05/28 11:10:34;;;;;;;6.90;2.57;;;16.90;96.30;;;;;;5111331;28;20445;-69
2021/05/28 11:13:20;;;;;;;4.40;1.97;;;16.90;94.40;;;;;;5101989;28;20517;-69
2021/05/28 11:16:05;;;;;;;2.30;1.53;;;16.80;92.80;;;;;;5106385;28;20478;-70
2021/05/28 11:18:52;;;;;;;5.00;1.67;;;16.70;90.50;;;;;;5102660;28;20488;-70
2021/05/28 11:21:41;;;;;;;4.90;1.40;;;16.70;92.00;;;;;;5102296;28;20455;-70
2021/05/28 11:24:42;;;;;;;2.03;1.27;;;16.80;92.80;;;;;;5100553;28;20458;-69
2021/05/28 11:27:44;;;;;;;2.53;1.63;;;17.00;90.40;;;;;;5109483;28;20517;-69
2021/05/28 11:30:43;;;;;;;4.43;1.50;;;17.40;83.00;;;;;;5109519;28;20431;-69
2021/05/28 11:33:40;;;;;;;5.97;1.40;;;17.70;80.10;;;;;;5107249;28;20527;-69
2021/05/28 11:36:45;;;;;;;7.23;1.40;;;18.00;72.00;;;;;;5109024;28;20513;-70
2021/05/28 11:39:34;;;;;;;4.03;1.27;;;18.20;67.20;;;;;;5098389;28;20427;-69
2021/05/28 11:42:20;;;;;;;4.20;1.40;;;18.20;59.10;;;;;;5099776;28;20487;-69
2021/05/28 11:45:07;;;;;;;5.60;1.80;;;18.00;60.20;;;;;;5111138;28;20399;-69
2021/05/28 11:47:53;;;;;;;2.53;1.50;;;17.70;58.20;;;;;;5104510;28;20461;-70
2021/05/28 11:50:42;;;;;;;3.37;1.80;;;17.40;66.70;;;;;;5107358;28;20483;-69
2021/05/28 11:53:31;;;;;;;2.43;1.40;;;17.10;69.10;;;;;;5109936;28;20514;-70
2021/05/28 11:56:17;;;;;;;4.87;1.67;;;16.90;73.80;;;;;;5102405;28;20836;-70
2021/05/28 11:59:02;;;;;;;3.77;1.73;;;16.90;73.30;;;;;;5100881;28;20435;-71
2021/05/28 12:01:47;;;;;;;2.97;1.80;;;16.90;73.00;;;;;;5107086;28;20564;-70
2021/05/28 12:04:32;;;;;;;4.07;1.83;;;16.90;72.10;;;;;;5103774;28;20472;-69
2021/05/28 12:07:17;;;;;;;10.10;1.63;;;16.80;74.00;;;;;;5109275;28;20524;-70
2021/05/28 12:10:05;;;;;;;3.60;1.80;;;16.70;76.20;;;;;;5108337;28;20792;-70
2021/05/28 12:12:56;;;;;;;3.50;1.67;;;16.80;75.00;;;;;;5108825;28;20455;-70
2021/05/28 12:15:44;;;;;;;3.17;1.50;;;16.90;77.60;;;;;;5105509;28;20456;-70
2021/05/28 12:18:31;;;;;;;3.57;1.87;;;17.20;79.40;;;;;;5107770;28;20427;-70
2021/05/28 12:21:18;;;;;;;2.20;1.10;;;17.60;71.10;;;;;;5110899;28;20452;-70
2021/05/28 12:24:03;;;;;;;3.50;1.73;;;17.80;63.10;;;;;;5112080;28;20439;-70
2021/05/28 12:26:50;;;;;;;3.10;1.37;;;17.90;60.40;;;;;;5110654;28;20437;-69
2021/05/28 12:29:36;;;;;;;3.10;1.20;;;17.90;61.30;;;;;;5112452;28;20435;-71
2021/05/28 12:32:21;;;;;;;3.37;1.83;;;17.90;67.90;;;;;;5110508;28;20479;-71
2021/05/28 12:35:07;;;;;;;11.33;2.17;;;17.60;60.40;;;;;;5113140;28;20430;-69
2021/05/28 12:38:03;;;;;;;4.27;1.83;;;17.50;64.80;;;;;;5107820;28;20498;-70
2021/05/28 12:40:49;;;;;;;3.13;1.50;;;17.60;70.20;;;;;;5104716;28;20538;-69
2021/05/28 12:43:40;;;;;;;3.80;1.60;;;17.60;68.40;;;;;;5114021;28;20437;-69
2021/05/28 12:46:27;;;;;;;3.03;1.50;;;17.70;67.90;;;;;;5107466;28;20988;-70
2021/05/28 12:49:14;;;;;;;2.87;1.30;;;17.90;67.70;;;;;;5109548;28;21009;-69
2021/05/28 12:52:01;;;;;;;2.83;1.30;;;18.30;66.20;;;;;;5110662;28;20795;-69
2021/05/28 12:54:59;;;;;;;2.60;1.53;;;18.60;62.40;;;;;;5107316;28;20499;-70
2021/05/28 12:57:44;;;;;;;3.60;1.77;;;18.80;46.20;;;;;;5112021;28;20396;-71
2021/05/28 13:00:35;;;;;;;2.00;1.17;;;19.10;54.20;;;;;;5111445;28;20444;-69
2021/05/28 13:03:39;;;;;;;2.17;1.33;;;19.30;48.10;;;;;;5103171;28;20799;-70
2021/05/28 13:06:29;;;;;;;2.30;1.27;;;19.70;49.70;;;;;;5110442;28;20418;-69
2021/05/28 13:09:18;;;;;;;2.30;1.20;;;19.90;48.20;;;;;;5110779;28;20423;-69
2021/05/28 13:12:11;;;;;;;2.70;1.33;;;20.00;47.10;;;;;;5107565;28;20468;-70
2021/05/28 13:14:56;;;;;;;2.57;1.10;;;20.20;48.90;;;;;;5107478;28;20510;-69
2021/05/28 13:17:42;;;;;;;2.47;1.50;;;20.40;45.10;;;;;;5110258;28;20474;-69
2021/05/28 13:20:28;;;;;;;3.10;1.23;;;20.40;45.90;;;;;;5096697;28;20422;-70
2021/05/28 13:23:20;;;;;;;2.33;1.20;;;20.50;43.40;;;;;;5109261;28;20481;-69
2021/05/28 13:26:08;;;;;;;5.87;1.50;;;20.40;47.50;;;;;;5111534;28;20502;-70
2021/05/28 13:28:52;;;;;;;3.77;1.17;;;20.30;47.10;;;;;;5105206;28;20453;-69
2021/05/28 13:31:42;;;;;;;2.90;1.70;;;20.10;48.30;;;;;;5110200;28;20825;-69
2021/05/28 13:34:28;;;;;;;2.80;1.70;;;19.80;48.30;;;;;;5104494;28;20477;-69
2021/05/28 13:37:13;;;;;;;4.57;1.50;;;19.60;47.10;;;;;;5106728;28;20537;-69
2021/05/28 13:39:58;;;;;;;2.60;1.33;;;19.60;47.50;;;;;;5103707;28;20593;-69
2021/05/28 13:42:46;;;;;;;2.73;1.20;;;19.70;44.90;;;;;;5106930;28;20461;-69
2021/05/28 13:45:32;;;;;;;3.03;1.20;;;19.90;44.80;;;;;;5110142;28;20449;-69
2021/05/28 13:48:17;;;;;;;4.23;1.30;;;20.20;44.00;;;;;;5100448;28;20444;-69
2021/05/28 13:51:04;;;;;;;2.43;1.17;;;20.40;42.00;;;;;;5108455;28;20521;-69
2021/05/28 13:53:49;;;;;;;2.57;1.03;;;20.50;43.70;;;;;;5105495;28;21182;-69
2021/05/28 13:56:34;;;;;;;3.13;1.67;;;20.30;41.00;;;;;;5109720;28;20421;-70
2021/05/28 13:59:19;;;;;;;2.57;1.10;;;20.30;44.70;;;;;;5106535;28;20964;-71
2021/05/28 14:02:07;;;;;;;2.60;1.30;;;20.20;43.70;;;;;;5110278;28;20499;-70
2021/05/28 14:04:52;;;;;;;2.13;1.37;;;20.30;42.40;;;;;;5106909;28;20448;-70
2021/05/28 14:07:38;;;;;;;2.27;1.00;;;20.20;42.30;;;;;;5105262;28;20441;-70
2021/05/28 14:10:24;;;;;;;3.47;1.10;;;20.30;43.00;;;;;;5109244;28;20417;-69
2021/05/28 14:13:10;;;;;;;1.90;1.10;;;20.30;40.50;;;;;;5103141;28;20534;-69
2021/05/28 14:15:55;;;;;;;3.40;1.10;;;20.30;40.50;;;;;;5109928;28;20434;-69
2021/05/28 14:18:40;;;;;;;3.70;1.20;;;20.50;43.50;;;;;;5108702;28;20491;-69